sensor_id;sensor_type;location;lat;lon;timestamp;pressure;altitude;pressure_sealevel;temperature;humidity
80397;BME280;69721;55.894;-3.052;2023-05-19T00:01:47;102182.51;;;14.25;52.15
80397;BME280;69721;55.894;-3.052;2023-05-19T00:04:12;102186.10;;;12.03;56.30
80397;BME280;69721;55.894;-3.052;2023-05-19T00:06:37;102180.31;;;13.85;52.78
80397;BME280;69721;55.894;-3.052;2023-05-19T00:09:04;102182.09;;;13.15;53.81
80397;BME280;69721;55.894;-3.052;2023-05-19T00:11:28;102180.17;;;14.49;51.93
80397;BME280;69721;55.894;-3.052;2023-05-19T00:13:54;102181.76;;;14.31;50.61
80397;BME280;69721;55.894;-3.052;2023-05-19T00:16:19;102181.01;;;13.06;53.38
80397;BME280;69721;55.894;-3.052;2023-05-19T00:18:44;102173.06;;;13.84;51.29
80397;BME280;69721;55.894;-3.052;2023-05-19T00:21:09;102168.87;;;14.95;49.30
80397;BME280;69721;55.894;-3.052;2023-05-19T00:23:35;102166.10;;;13.97;50.33
80397;BME280;69721;55.894;-3.052;2023-05-19T00:26:00;102165.93;;;15.06;48.69
80397;BME280;69721;55.894;-3.052;2023-05-19T00:28:26;102163.17;;;15.42;47.35
80397;BME280;69721;55.894;-3.052;2023-05-19T00:30:51;102160.42;;;14.02;49.47
80397;BME280;69721;55.894;-3.052;2023-05-19T00:33:16;102154.30;;;15.11;47.90
80397;BME280;69721;55.894;-3.052;2023-05-19T00:35:42;102148.46;;;14.64;47.95
80397;BME280;69721;55.894;-3.052;2023-05-19T00:38:07;102145.34;;;15.23;47.72
80397;BME280;69721;55.894;-3.052;2023-05-19T00:40:34;102145.38;;;15.20;47.35
80397;BME280;69721;55.894;-3.052;2023-05-19T00:42:58;102152.29;;;14.51;49.11
80397;BME280;69721;55.894;-3.052;2023-05-19T00:45:24;102149.53;;;14.39;50.50
80397;BME280;69721;55.894;-3.052;2023-05-19T00:47:49;102148.85;;;14.83;48.67
80397;BME280;69721;55.894;-3.052;2023-05-19T00:50:15;102154.05;;;13.26;51.47
80397;BME280;69721;55.894;-3.052;2023-05-19T00:52:40;102155.74;;;13.47;51.22
80397;BME280;69721;55.894;-3.052;2023-05-19T00:55:07;102155.36;;;13.40;51.15
80397;BME280;69721;55.894;-3.052;2023-05-19T00:57:31;102160.37;;;13.75;50.50
80397;BME280;69721;55.894;-3.052;2023-05-19T00:59:56;102166.72;;;14.87;49.24
80397;BME280;69721;55.894;-3.052;2023-05-19T01:02:22;102173.74;;;14.25;49.55
80397;BME280;69721;55.894;-3.052;2023-05-19T01:04:49;102175.19;;;14.87;48.16
80397;BME280;69721;55.894;-3.052;2023-05-19T01:07:13;102174.11;;;14.90;48.07
80397;BME280;69721;55.894;-3.052;2023-05-19T01:09:39;102184.80;;;13.65;50.17
80397;BME280;69721;55.894;-3.052;2023-05-19T01:12:05;102186.42;;;14.02;49.49
80397;BME280;69721;55.894;-3.052;2023-05-19T01:14:30;102192.02;;;13.85;50.10
80397;BME280;69721;55.894;-3.052;2023-05-19T01:17:00;102202.41;;;13.11;52.17
80397;BME280;69721;55.894;-3.052;2023-05-19T01:19:32;102183.80;;;13.44;51.13
80397;BME280;69721;55.894;-3.052;2023-05-19T01:24:25;102169.61;;;13.55;50.44
80397;BME280;69721;55.894;-3.052;2023-05-19T01:26:53;102160.46;;;14.23;48.03
80397;BME280;69721;55.894;-3.052;2023-05-19T01:29:16;102171.18;;;14.80;46.71
80397;BME280;69721;55.894;-3.052;2023-05-19T01:31:28;102174.27;;;14.50;47.35
80397;BME280;69721;55.894;-3.052;2023-05-19T01:33:53;102182.27;;;14.14;48.30
80397;BME280;69721;55.894;-3.052;2023-05-19T01:36:19;102188.69;;;14.03;48.56
80397;BME280;69721;55.894;-3.052;2023-05-19T01:38:45;102190.17;;;14.74;47.35
80397;BME280;69721;55.894;-3.052;2023-05-19T01:41:09;102187.52;;;14.96;47.08
80397;BME280;69721;55.894;-3.052;2023-05-19T01:43:35;102183.33;;;14.72;47.37
80397;BME280;69721;55.894;-3.052;2023-05-19T01:46:00;102185.09;;;15.20;45.92
80397;BME280;69721;55.894;-3.052;2023-05-19T01:48:26;102182.26;;;14.74;47.75
80397;BME280;69721;55.894;-3.052;2023-05-19T01:50:51;102181.61;;;13.85;48.49
80397;BME280;69721;55.894;-3.052;2023-05-19T01:53:16;102181.74;;;15.34;46.61
80397;BME280;69721;55.894;-3.052;2023-05-19T01:55:43;102183.39;;;15.49;45.97
80397;BME280;69721;55.894;-3.052;2023-05-19T01:58:11;102190.45;;;15.62;45.45
80397;BME280;69721;55.894;-3.052;2023-05-19T02:00:42;102194.21;;;14.79;46.67
80397;BME280;69721;55.894;-3.052;2023-05-19T02:03:06;102193.14;;;14.58;46.91
80397;BME280;69721;55.894;-3.052;2023-05-19T02:05:30;102197.02;;;15.04;46.67
80397;BME280;69721;55.894;-3.052;2023-05-19T02:08:01;102199.62;;;14.47;47.20
80397;BME280;69721;55.894;-3.052;2023-05-19T02:10:20;102198.61;;;13.43;49.70
80397;BME280;69721;55.894;-3.052;2023-05-19T02:12:40;102203.49;;;12.19;51.91
80397;BME280;69721;55.894;-3.052;2023-05-19T02:15:08;102200.23;;;12.55;52.22
80397;BME280;69721;55.894;-3.052;2023-05-19T02:17:33;102201.12;;;12.22;52.21
80397;BME280;69721;55.894;-3.052;2023-05-19T02:19:56;102201.97;;;12.35;51.59
80397;BME280;69721;55.894;-3.052;2023-05-19T02:22:22;102198.25;;;13.01;50.37
80397;BME280;69721;55.894;-3.052;2023-05-19T02:24:47;102199.89;;;13.47;48.66
80397;BME280;69721;55.894;-3.052;2023-05-19T02:27:12;102196.84;;;13.57;48.24
80397;BME280;69721;55.894;-3.052;2023-05-19T02:29:37;102194.08;;;13.56;48.29
80397;BME280;69721;55.894;-3.052;2023-05-19T02:32:04;102204.05;;;13.11;48.93
80397;BME280;69721;55.894;-3.052;2023-05-19T02:34:28;102200.06;;;13.85;47.32
80397;BME280;69721;55.894;-3.052;2023-05-19T02:36:54;102206.46;;;13.02;48.68
80397;BME280;69721;55.894;-3.052;2023-05-19T02:39:19;102195.03;;;13.61;47.51
80397;BME280;69721;55.894;-3.052;2023-05-19T02:41:45;102195.33;;;11.95;50.78
80397;BME280;69721;55.894;-3.052;2023-05-19T02:44:11;102191.90;;;13.55;48.33
80397;BME280;69721;55.894;-3.052;2023-05-19T02:46:36;102189.55;;;13.64;47.24
80397;BME280;69721;55.894;-3.052;2023-05-19T02:49:02;102193.21;;;13.35;47.44
80397;BME280;69721;55.894;-3.052;2023-05-19T02:51:27;102197.37;;;13.90;46.40
80397;BME280;69721;55.894;-3.052;2023-05-19T02:53:53;102200.11;;;13.37;47.03
80397;BME280;69721;55.894;-3.052;2023-05-19T02:56:18;102198.62;;;13.56;47.06
80397;BME280;69721;55.894;-3.052;2023-05-19T02:58:43;102201.93;;;13.90;46.43
80397;BME280;69721;55.894;-3.052;2023-05-19T03:01:09;102214.02;;;13.32;46.88
80397;BME280;69721;55.894;-3.052;2023-05-19T03:03:35;102216.73;;;13.62;46.99
80397;BME280;69721;55.894;-3.052;2023-05-19T03:06:00;102220.83;;;13.57;46.99
80397;BME280;69721;55.894;-3.052;2023-05-19T03:08:25;102216.32;;;13.78;46.75
80397;BME280;69721;55.894;-3.052;2023-05-19T03:10:51;102215.40;;;13.47;46.62
80397;BME280;69721;55.894;-3.052;2023-05-19T03:13:16;102224.35;;;13.54;46.96
80397;BME280;69721;55.894;-3.052;2023-05-19T03:15:41;102226.04;;;13.47;47.09
80397;BME280;69721;55.894;-3.052;2023-05-19T03:18:06;102223.21;;;14.13;46.20
80397;BME280;69721;55.894;-3.052;2023-05-19T03:20:32;102221.66;;;13.99;46.41
80397;BME280;69721;55.894;-3.052;2023-05-19T03:22:58;102227.73;;;14.05;45.78
80397;BME280;69721;55.894;-3.052;2023-05-19T03:25:23;102228.27;;;13.93;45.71
80397;BME280;69721;55.894;-3.052;2023-05-19T03:27:49;102225.56;;;13.98;46.55
80397;BME280;69721;55.894;-3.052;2023-05-19T03:30:14;102227.00;;;13.34;47.73
80397;BME280;69721;55.894;-3.052;2023-05-19T03:32:39;102230.62;;;13.73;47.17
80397;BME280;69721;55.894;-3.052;2023-05-19T03:35:05;102226.86;;;13.63;46.33
80397;BME280;69721;55.894;-3.052;2023-05-19T03:37:31;102237.81;;;13.34;47.27
80397;BME280;69721;55.894;-3.052;2023-05-19T03:39:56;102236.65;;;12.66;48.28
80397;BME280;69721;55.894;-3.052;2023-05-19T03:42:21;102225.37;;;14.05;46.20
80397;BME280;69721;55.894;-3.052;2023-05-19T03:44:46;102218.94;;;13.58;46.25
80397;BME280;69721;55.894;-3.052;2023-05-19T03:47:12;102222.82;;;12.92;47.29
80397;BME280;69721;55.894;-3.052;2023-05-19T03:49:37;102213.63;;;13.26;46.81
80397;BME280;69721;55.894;-3.052;2023-05-19T03:52:03;102221.56;;;13.33;46.95
80397;BME280;69721;55.894;-3.052;2023-05-19T03:54:28;102222.03;;;12.84;47.55
80397;BME280;69721;55.894;-3.052;2023-05-19T03:56:54;102221.00;;;12.08;48.21
80397;BME280;69721;55.894;-3.052;2023-05-19T03:59:19;102222.89;;;13.30;47.37
80397;BME280;69721;55.894;-3.052;2023-05-19T04:01:44;102224.43;;;12.82;48.24
80397;BME280;69721;55.894;-3.052;2023-05-19T04:04:09;102232.13;;;13.00;47.49
80397;BME280;69721;55.894;-3.052;2023-05-19T04:06:35;102232.10;;;13.04;47.69
80397;BME280;69721;55.894;-3.052;2023-05-19T04:09:01;102232.14;;;12.98;47.57
80397;BME280;69721;55.894;-3.052;2023-05-19T04:11:26;102235.72;;;12.89;47.09
80397;BME280;69721;55.894;-3.052;2023-05-19T04:13:52;102237.52;;;13.30;46.32
80397;BME280;69721;55.894;-3.052;2023-05-19T04:16:17;102240.08;;;13.33;46.08
80397;BME280;69721;55.894;-3.052;2023-05-19T04:18:43;102237.29;;;12.93;47.00
80397;BME280;69721;55.894;-3.052;2023-05-19T04:21:08;102241.59;;;12.76;47.36
80397;BME280;69721;55.894;-3.052;2023-05-19T04:23:34;102242.01;;;13.03;47.02
80397;BME280;69721;55.894;-3.052;2023-05-19T04:25:59;102249.83;;;13.47;46.22
80397;BME280;69721;55.894;-3.052;2023-05-19T04:28:25;102250.32;;;13.18;46.21
80397;BME280;69721;55.894;-3.052;2023-05-19T04:30:50;102253.41;;;13.21;46.15
80397;BME280;69721;55.894;-3.052;2023-05-19T04:33:16;102256.27;;;13.39;45.95
80397;BME280;69721;55.894;-3.052;2023-05-19T04:35:41;102256.74;;;13.34;45.46
80397;BME280;69721;55.894;-3.052;2023-05-19T04:38:06;102256.90;;;12.85;46.36
80397;BME280;69721;55.894;-3.052;2023-05-19T04:40:31;102258.88;;;13.50;45.62
80397;BME280;69721;55.894;-3.052;2023-05-19T04:42:57;102256.79;;;13.08;45.50
80397;BME280;69721;55.894;-3.052;2023-05-19T04:45:22;102257.40;;;13.26;45.41
80397;BME280;69721;55.894;-3.052;2023-05-19T04:47:48;102256.50;;;12.42;47.07
80397;BME280;69721;55.894;-3.052;2023-05-19T04:50:14;102256.67;;;12.67;46.40
80397;BME280;69721;55.894;-3.052;2023-05-19T04:52:39;102257.76;;;13.11;46.11
80397;BME280;69721;55.894;-3.052;2023-05-19T04:55:05;102261.32;;;12.84;46.37
80397;BME280;69721;55.894;-3.052;2023-05-19T04:57:30;102266.56;;;12.63;46.12
80397;BME280;69721;55.894;-3.052;2023-05-19T04:59:55;102268.78;;;12.78;46.38
80397;BME280;69721;55.894;-3.052;2023-05-19T05:02:21;102269.39;;;13.16;45.81
80397;BME280;69721;55.894;-3.052;2023-05-19T05:04:46;102268.28;;;12.86;45.90
80397;BME280;69721;55.894;-3.052;2023-05-19T05:07:11;102272.38;;;12.60;46.17
80397;BME280;69721;55.894;-3.052;2023-05-19T05:09:36;102276.36;;;12.78;46.10
80397;BME280;69721;55.894;-3.052;2023-05-19T05:12:02;102278.45;;;13.18;45.67
80397;BME280;69721;55.894;-3.052;2023-05-19T05:14:27;102275.75;;;13.10;45.55
80397;BME280;69721;55.894;-3.052;2023-05-19T05:16:53;102272.83;;;12.24;46.90
80397;BME280;69721;55.894;-3.052;2023-05-19T05:19:18;102270.48;;;12.51;46.77
80397;BME280;69721;55.894;-3.052;2023-05-19T05:21:43;102264.85;;;13.23;45.99
80397;BME280;69721;55.894;-3.052;2023-05-19T05:24:10;102261.30;;;13.35;45.18
80397;BME280;69721;55.894;-3.052;2023-05-19T05:26:34;102267.86;;;13.14;45.05
80397;BME280;69721;55.894;-3.052;2023-05-19T05:28:59;102269.59;;;13.65;44.27
80397;BME280;69721;55.894;-3.052;2023-05-19T05:31:24;102265.98;;;14.41;43.05
80397;BME280;69721;55.894;-3.052;2023-05-19T05:33:50;102260.90;;;13.89;43.50
80397;BME280;69721;55.894;-3.052;2023-05-19T05:36:16;102263.95;;;13.80;44.03
80397;BME280;69721;55.894;-3.052;2023-05-19T05:38:41;102269.43;;;14.32;43.66
80397;BME280;69721;55.894;-3.052;2023-05-19T05:41:07;102278.47;;;14.77;42.61
80397;BME280;69721;55.894;-3.052;2023-05-19T05:43:33;102274.45;;;15.31;42.36
80397;BME280;69721;55.894;-3.052;2023-05-19T05:45:58;102274.57;;;14.34;43.14
80397;BME280;69721;55.894;-3.052;2023-05-19T05:48:23;102274.79;;;14.70;42.64
80397;BME280;69721;55.894;-3.052;2023-05-19T05:50:49;102271.73;;;14.25;43.55
80397;BME280;69721;55.894;-3.052;2023-05-19T05:53:17;102270.33;;;14.72;42.29
80397;BME280;69721;55.894;-3.052;2023-05-19T05:55:40;102274.99;;;14.44;42.93
80397;BME280;69721;55.894;-3.052;2023-05-19T05:58:05;102274.07;;;14.63;42.48
80397;BME280;69721;55.894;-3.052;2023-05-19T06:00:30;102280.64;;;14.32;42.84
80397;BME280;69721;55.894;-3.052;2023-05-19T06:02:55;102280.01;;;14.54;42.81
80397;BME280;69721;55.894;-3.052;2023-05-19T06:05:21;102275.55;;;14.08;43.62
80397;BME280;69721;55.894;-3.052;2023-05-19T06:07:46;102268.36;;;14.15;43.58
80397;BME280;69721;55.894;-3.052;2023-05-19T06:10:12;102271.27;;;14.06;43.55
80397;BME280;69721;55.894;-3.052;2023-05-19T06:12:37;102268.41;;;14.90;42.85
80397;BME280;69721;55.894;-3.052;2023-05-19T06:15:03;102278.93;;;14.72;42.97
80397;BME280;69721;55.894;-3.052;2023-05-19T06:17:28;102285.61;;;14.67;42.71
80397;BME280;69721;55.894;-3.052;2023-05-19T06:19:53;102283.05;;;14.30;43.29
80397;BME280;69721;55.894;-3.052;2023-05-19T06:22:18;102280.86;;;14.97;43.07
80397;BME280;69721;55.894;-3.052;2023-05-19T06:24:45;102288.30;;;14.02;44.44
80397;BME280;69721;55.894;-3.052;2023-05-19T06:27:10;102287.92;;;14.66;44.29
80397;BME280;69721;55.894;-3.052;2023-05-19T06:29:35;102280.21;;;15.00;43.28
80397;BME280;69721;55.894;-3.052;2023-05-19T06:32:01;102281.67;;;13.81;44.61
80397;BME280;69721;55.894;-3.052;2023-05-19T06:34:26;102277.56;;;14.59;43.94
80397;BME280;69721;55.894;-3.052;2023-05-19T06:36:52;102275.89;;;15.10;43.63
80397;BME280;69721;55.894;-3.052;2023-05-19T06:39:17;102278.98;;;15.08;43.36
80397;BME280;69721;55.894;-3.052;2023-05-19T06:41:42;102276.54;;;15.27;43.34
80397;BME280;69721;55.894;-3.052;2023-05-19T06:44:08;102280.68;;;14.90;43.44
80397;BME280;69721;55.894;-3.052;2023-05-19T06:46:33;102286.89;;;15.58;42.92
80397;BME280;69721;55.894;-3.052;2023-05-19T06:48:58;102285.44;;;14.63;44.52
80397;BME280;69721;55.894;-3.052;2023-05-19T06:51:23;102279.41;;;14.78;44.27
80397;BME280;69721;55.894;-3.052;2023-05-19T06:53:49;102280.86;;;15.64;43.24
80397;BME280;69721;55.894;-3.052;2023-05-19T06:56:14;102286.96;;;13.84;44.01
80397;BME280;69721;55.894;-3.052;2023-05-19T06:58:39;102284.68;;;14.20;44.08
80397;BME280;69721;55.894;-3.052;2023-05-19T07:01:05;102282.12;;;14.14;44.77
80397;BME280;69721;55.894;-3.052;2023-05-19T07:03:30;102288.98;;;14.28;44.53
80397;BME280;69721;55.894;-3.052;2023-05-19T07:05:56;102290.22;;;14.40;43.71
80397;BME280;69721;55.894;-3.052;2023-05-19T07:08:22;102299.10;;;13.17;46.22
80397;BME280;69721;55.894;-3.052;2023-05-19T07:10:48;102292.84;;;14.78;44.12
80397;BME280;69721;55.894;-3.052;2023-05-19T07:13:13;102295.99;;;14.72;44.24
80397;BME280;69721;55.894;-3.052;2023-05-19T07:15:38;102300.98;;;14.37;43.37
80397;BME280;69721;55.894;-3.052;2023-05-19T07:18:04;102307.26;;;15.67;42.83
80397;BME280;69721;55.894;-3.052;2023-05-19T07:20:29;102308.75;;;15.54;41.97
80397;BME280;69721;55.894;-3.052;2023-05-19T07:22:55;102307.36;;;16.99;40.47
80397;BME280;69721;55.894;-3.052;2023-05-19T07:25:20;102308.32;;;14.38;43.87
80397;BME280;69721;55.894;-3.052;2023-05-19T07:27:45;102315.04;;;13.76;44.98
80397;BME280;69721;55.894;-3.052;2023-05-19T07:30:11;102308.41;;;14.38;43.73
80397;BME280;69721;55.894;-3.052;2023-05-19T07:32:36;102315.22;;;13.74;45.55
80397;BME280;69721;55.894;-3.052;2023-05-19T07:35:02;102318.53;;;13.55;46.33
80397;BME280;69721;55.894;-3.052;2023-05-19T07:37:27;102323.22;;;12.78;45.87
80397;BME280;69721;55.894;-3.052;2023-05-19T07:39:52;102312.02;;;14.55;43.49
80397;BME280;69721;55.894;-3.052;2023-05-19T07:42:17;102312.60;;;12.95;45.24
80397;BME280;69721;55.894;-3.052;2023-05-19T07:44:42;102313.62;;;13.29;45.98
80397;BME280;69721;55.894;-3.052;2023-05-19T07:47:08;102307.40;;;15.26;43.26
80397;BME280;69721;55.894;-3.052;2023-05-19T07:49:33;102307.56;;;15.98;41.17
80397;BME280;69721;55.894;-3.052;2023-05-19T07:51:58;102309.51;;;15.55;41.68
80397;BME280;69721;55.894;-3.052;2023-05-19T07:54:23;102310.88;;;13.97;42.14
80397;BME280;69721;55.894;-3.052;2023-05-19T07:57:05;102313.75;;;14.27;43.16
80397;BME280;69721;55.894;-3.052;2023-05-19T07:59:30;102318.17;;;15.53;41.65
80397;BME280;69721;55.894;-3.052;2023-05-19T08:01:55;102314.59;;;16.40;39.06
80397;BME280;69721;55.894;-3.052;2023-05-19T08:04:21;102315.38;;;16.70;39.21
80397;BME280;69721;55.894;-3.052;2023-05-19T08:06:46;102311.50;;;17.12;37.26
80397;BME280;69721;55.894;-3.052;2023-05-19T08:09:11;102309.71;;;15.97;38.45
80397;BME280;69721;55.894;-3.052;2023-05-19T08:11:37;102311.01;;;14.37;41.04
80397;BME280;69721;55.894;-3.052;2023-05-19T08:14:02;102306.74;;;14.81;41.45
80397;BME280;69721;55.894;-3.052;2023-05-19T08:16:28;102305.64;;;16.12;39.56
80397;BME280;69721;55.894;-3.052;2023-05-19T08:18:53;102311.37;;;15.35;40.27
80397;BME280;69721;55.894;-3.052;2023-05-19T08:21:18;102312.77;;;16.56;38.61
80397;BME280;69721;55.894;-3.052;2023-05-19T08:23:43;102315.72;;;13.87;42.02
80397;BME280;69721;55.894;-3.052;2023-05-19T08:26:09;102314.75;;;14.04;43.09
80397;BME280;69721;55.894;-3.052;2023-05-19T08:28:34;102313.52;;;15.34;40.55
80397;BME280;69721;55.894;-3.052;2023-05-19T08:30:59;102316.68;;;14.15;41.99
80397;BME280;69721;55.894;-3.052;2023-05-19T08:33:25;102314.56;;;14.08;41.85
80397;BME280;69721;55.894;-3.052;2023-05-19T08:35:50;102314.93;;;15.13;41.08
80397;BME280;69721;55.894;-3.052;2023-05-19T08:38:16;102326.68;;;12.93;45.08
80397;BME280;69721;55.894;-3.052;2023-05-19T08:40:42;102315.04;;;14.03;45.35
80397;BME280;69721;55.894;-3.052;2023-05-19T08:43:07;102308.50;;;16.20;40.32
80397;BME280;69721;55.894;-3.052;2023-05-19T08:45:32;102316.65;;;15.43;38.95
80397;BME280;69721;55.894;-3.052;2023-05-19T08:47:57;102311.59;;;16.93;36.07
80397;BME280;69721;55.894;-3.052;2023-05-19T08:50:28;102308.23;;;15.86;39.55
80397;BME280;69721;55.894;-3.052;2023-05-19T08:52:51;102300.79;;;17.89;36.94
80397;BME280;69721;55.894;-3.052;2023-05-19T08:55:20;102305.30;;;16.18;36.57
80397;BME280;69721;55.894;-3.052;2023-05-19T08:57:38;102296.06;;;17.10;36.41
80397;BME280;69721;55.894;-3.052;2023-05-19T09:00:06;102294.39;;;15.62;36.88
80397;BME280;69721;55.894;-3.052;2023-05-19T09:02:29;102293.69;;;16.85;36.09
80397;BME280;69721;55.894;-3.052;2023-05-19T09:04:55;102288.00;;;17.75;33.88
80397;BME280;69721;55.894;-3.052;2023-05-19T09:07:21;102284.21;;;17.67;33.59
80397;BME280;69721;55.894;-3.052;2023-05-19T09:09:44;102288.91;;;17.64;34.50
80397;BME280;69721;55.894;-3.052;2023-05-19T09:12:10;102285.93;;;18.37;33.48
80397;BME280;69721;55.894;-3.052;2023-05-19T09:14:35;102286.98;;;18.93;34.14
80397;BME280;69721;55.894;-3.052;2023-05-19T09:17:01;102293.09;;;15.38;38.01
80397;BME280;69721;55.894;-3.052;2023-05-19T09:19:28;102291.15;;;15.64;37.64
80397;BME280;69721;55.894;-3.052;2023-05-19T09:21:57;102302.22;;;15.22;35.23
80397;BME280;69721;55.894;-3.052;2023-05-19T09:24:17;102302.79;;;16.04;35.23
80397;BME280;69721;55.894;-3.052;2023-05-19T09:26:42;102310.30;;;13.99;40.53
80397;BME280;69721;55.894;-3.052;2023-05-19T09:29:10;102314.00;;;14.90;37.94
80397;BME280;69721;55.894;-3.052;2023-05-19T09:31:32;102314.30;;;15.28;36.02
80397;BME280;69721;55.894;-3.052;2023-05-19T09:33:57;102317.84;;;17.03;35.30
80397;BME280;69721;55.894;-3.052;2023-05-19T09:36:23;102317.34;;;15.42;37.27
80397;BME280;69721;55.894;-3.052;2023-05-19T09:38:48;102315.70;;;15.57;36.73
80397;BME280;69721;55.894;-3.052;2023-05-19T09:41:13;102317.01;;;15.21;36.68
80397;BME280;69721;55.894;-3.052;2023-05-19T09:43:38;102318.75;;;16.04;36.05
80397;BME280;69721;55.894;-3.052;2023-05-19T09:46:04;102317.16;;;17.88;33.68
80397;BME280;69721;55.894;-3.052;2023-05-19T09:48:29;102313.74;;;18.43;33.11
80397;BME280;69721;55.894;-3.052;2023-05-19T09:50:55;102324.88;;;16.29;36.62
80397;BME280;69721;55.894;-3.052;2023-05-19T09:53:21;102331.81;;;15.10;37.63
80397;BME280;69721;55.894;-3.052;2023-05-19T09:55:47;102325.56;;;16.38;37.51
80397;BME280;69721;55.894;-3.052;2023-05-19T09:58:15;102323.53;;;16.70;35.05
80397;BME280;69721;55.894;-3.052;2023-05-19T10:00:37;102323.31;;;17.53;34.53
80397;BME280;69721;55.894;-3.052;2023-05-19T10:03:04;102324.34;;;18.30;32.77
80397;BME280;69721;55.894;-3.052;2023-05-19T10:05:27;102326.95;;;18.86;31.36
80397;BME280;69721;55.894;-3.052;2023-05-19T10:07:54;102331.09;;;18.66;32.32
80397;BME280;69721;55.894;-3.052;2023-05-19T10:10:18;102335.77;;;18.08;32.96
80397;BME280;69721;55.894;-3.052;2023-05-19T10:12:43;102332.96;;;17.35;33.41
80397;BME280;69721;55.894;-3.052;2023-05-19T10:15:10;102331.27;;;17.28;33.44
80397;BME280;69721;55.894;-3.052;2023-05-19T10:17:35;102330.45;;;18.01;32.55
80397;BME280;69721;55.894;-3.052;2023-05-19T11:32:55;102346.87;;;14.56;33.77
80397;BME280;69721;55.894;-3.052;2023-05-19T11:35:19;102345.87;;;16.27;32.30
80397;BME280;69721;55.894;-3.052;2023-05-19T11:37:46;102347.14;;;17.30;32.00
80397;BME280;69721;55.894;-3.052;2023-05-19T11:40:12;102349.07;;;17.02;32.13
80397;BME280;69721;55.894;-3.052;2023-05-19T11:42:36;102345.23;;;17.01;31.05
80397;BME280;69721;55.894;-3.052;2023-05-19T11:45:01;102346.55;;;17.05;30.67
80397;BME280;69721;55.894;-3.052;2023-05-19T11:47:27;102340.04;;;19.07;29.41
80397;BME280;69721;55.894;-3.052;2023-05-19T11:49:53;102346.95;;;18.82;29.19
80397;BME280;69721;55.894;-3.052;2023-05-19T11:52:20;102354.16;;;17.24;30.21
80397;BME280;69721;55.894;-3.052;2023-05-19T11:54:47;102356.89;;;17.77;30.79
80397;BME280;69721;55.894;-3.052;2023-05-19T11:57:09;102348.09;;;19.32;28.96
80397;BME280;69721;55.894;-3.052;2023-05-19T11:59:35;102348.89;;;19.16;31.68
80397;BME280;69721;55.894;-3.052;2023-05-19T12:02:01;102344.27;;;20.39;30.96
80397;BME280;69721;55.894;-3.052;2023-05-19T12:04:25;102340.25;;;19.37;29.86
80397;BME280;69721;55.894;-3.052;2023-05-19T12:06:50;102336.52;;;21.85;27.79
80397;BME280;69721;55.894;-3.052;2023-05-19T12:09:15;102336.47;;;19.54;28.46
80397;BME280;69721;55.894;-3.052;2023-05-19T12:11:41;102330.96;;;20.25;28.76
80397;BME280;69721;55.894;-3.052;2023-05-19T12:14:06;102327.83;;;21.15;27.47
80397;BME280;69721;55.894;-3.052;2023-05-19T12:16:32;102327.08;;;19.60;27.62
80397;BME280;69721;55.894;-3.052;2023-05-19T12:18:57;102333.56;;;17.90;31.95
80397;BME280;69721;55.894;-3.052;2023-05-19T12:21:22;102329.63;;;18.94;29.81
80397;BME280;69721;55.894;-3.052;2023-05-19T12:23:47;102328.77;;;19.01;29.56
80397;BME280;69721;55.894;-3.052;2023-05-19T12:26:13;102332.48;;;18.02;30.55
80397;BME280;69721;55.894;-3.052;2023-05-19T12:28:38;102331.24;;;17.16;31.50
80397;BME280;69721;55.894;-3.052;2023-05-19T12:31:04;102323.75;;;17.98;31.32
80397;BME280;69721;55.894;-3.052;2023-05-19T12:33:31;102317.25;;;20.31;28.64
80397;BME280;69721;55.894;-3.052;2023-05-19T12:35:54;102315.37;;;20.22;28.86
80397;BME280;69721;55.894;-3.052;2023-05-19T12:38:21;102320.14;;;19.97;30.32
80397;BME280;69721;55.894;-3.052;2023-05-19T12:40:45;102318.46;;;20.04;27.34
80397;BME280;69721;55.894;-3.052;2023-05-19T12:43:19;102320.90;;;21.02;27.24
80397;BME280;69721;55.894;-3.052;2023-05-19T12:45:36;102324.60;;;21.04;26.55
80397;BME280;69721;55.894;-3.052;2023-05-19T12:48:03;102326.29;;;19.12;27.40
80397;BME280;69721;55.894;-3.052;2023-05-19T12:50:29;102327.65;;;19.89;27.71
80397;BME280;69721;55.894;-3.052;2023-05-19T12:52:52;102323.01;;;21.22;27.07
80397;BME280;69721;55.894;-3.052;2023-05-19T12:55:18;102323.64;;;18.50;29.27
80397;BME280;69721;55.894;-3.052;2023-05-19T12:57:46;102328.47;;;20.51;28.34
80397;BME280;69721;55.894;-3.052;2023-05-19T13:00:14;102332.40;;;20.83;27.59
80397;BME280;69721;55.894;-3.052;2023-05-19T13:02:34;102330.63;;;21.48;25.13
80397;BME280;69721;55.894;-3.052;2023-05-19T13:04:59;102333.93;;;22.02;28.68
80397;BME280;69721;55.894;-3.052;2023-05-19T13:07:24;102333.15;;;21.64;25.21
80397;BME280;69721;55.894;-3.052;2023-05-19T13:09:49;102332.95;;;20.27;27.68
80397;BME280;69721;55.894;-3.052;2023-05-19T13:12:14;102332.90;;;19.60;29.30
80397;BME280;69721;55.894;-3.052;2023-05-19T13:14:40;102332.11;;;20.92;28.80
80397;BME280;69721;55.894;-3.052;2023-05-19T13:17:06;102323.63;;;21.69;26.98
80397;BME280;69721;55.894;-3.052;2023-05-19T13:19:31;102322.92;;;20.27;28.82
80397;BME280;69721;55.894;-3.052;2023-05-19T13:21:57;102325.92;;;19.94;27.89
80397;BME280;69721;55.894;-3.052;2023-05-19T13:24:22;102325.72;;;22.11;26.97
80397;BME280;69721;55.894;-3.052;2023-05-19T13:26:47;102323.52;;;22.73;25.62
80397;BME280;69721;55.894;-3.052;2023-05-19T13:29:13;102326.27;;;23.37;25.31
80397;BME280;69721;55.894;-3.052;2023-05-19T13:31:38;102338.55;;;20.41;27.65
80397;BME280;69721;55.894;-3.052;2023-05-19T13:34:04;102333.77;;;18.91;28.66
80397;BME280;69721;55.894;-3.052;2023-05-19T13:36:29;102331.24;;;21.48;28.30
80397;BME280;69721;55.894;-3.052;2023-05-19T13:38:54;102328.78;;;20.54;27.07
80397;BME280;69721;55.894;-3.052;2023-05-19T13:41:22;102328.15;;;21.62;27.64
80397;BME280;69721;55.894;-3.052;2023-05-19T13:43:45;102327.38;;;20.85;29.00
80397;BME280;69721;55.894;-3.052;2023-05-19T13:46:11;102332.79;;;20.36;27.52